createdAt,value
2023-01-12T00:00:00.947Z,51.42
2023-01-12T00:01:00.846Z,51.71
2023-01-12T00:02:00.846Z,47.63
2023-01-12T00:03:00.882Z,46.56
2023-01-12T00:04:00.856Z,55.52
2023-01-12T00:05:00.787Z,55.45
2023-01-12T00:06:00.809Z,48.02
2023-01-12T00:07:00.802Z,58.43
2023-01-12T00:08:00.834Z,49.42
2023-01-12T00:09:01.692Z,54.45
2023-01-12T00:10:01.485Z,57.18
2023-01-12T00:11:00.730Z,49.60
2023-01-12T00:12:00.747Z,47.67
2023-01-12T00:13:00.722Z,52.95
2023-01-12T00:14:00.750Z,50.71
2023-01-12T00:15:00.707Z,49.56
2023-01-12T00:16:00.699Z,55.68
2023-01-12T00:17:00.764Z,54.97
2023-01-12T00:18:00.706Z,49.61
2023-01-12T00:19:00.688Z,50.10
2023-01-12T00:20:00.695Z,50.01
2023-01-12T00:21:00.668Z,48.52
2023-01-12T00:22:00.651Z,47.13
2023-01-12T00:23:00.638Z,47.40
2023-01-12T00:24:00.640Z,53.71
2023-01-12T00:25:00.660Z,47.33
2023-01-12T00:26:00.619Z,52.74
2023-01-12T00:27:00.673Z,50.81
2023-01-12T00:28:00.612Z,47.72
2023-01-12T00:29:00.617Z,54.78
2023-01-12T00:30:00.620Z,48.16
2023-01-12T00:31:00.654Z,50.61
2023-01-12T00:32:00.596Z,47.72
2023-01-12T00:33:00.603Z,46.57
2023-01-12T00:34:00.609Z,48.19
2023-01-12T00:35:00.553Z,45.90
2023-01-12T00:36:00.558Z,47.40
2023-01-12T00:37:00.559Z,57.09
2023-01-12T00:38:00.543Z,46.58
2023-01-12T00:39:00.585Z,55.35
2023-01-12T00:40:02.840Z,52.26
2023-01-12T00:41:01.556Z,51.20
2023-01-12T00:42:00.531Z,52.79
2023-01-12T00:43:00.514Z,49.53
2023-01-12T00:44:00.494Z,47.34
2023-01-12T00:45:00.484Z,47.07
2023-01-12T00:46:00.569Z,47.03
2023-01-12T00:47:00.472Z,52.22
2023-01-12T00:48:00.476Z,54.82
2023-01-12T00:49:00.450Z,52.84
2023-01-12T00:50:00.573Z,49.16
2023-01-12T00:51:00.491Z,53.73
2023-01-12T00:52:00.488Z,56.01
2023-01-12T00:53:00.412Z,52.39
2023-01-12T00:54:00.501Z,52.67
2023-01-12T00:55:00.472Z,53.10
2023-01-12T00:56:00.454Z,52.66
2023-01-12T00:57:00.404Z,54.56
2023-01-12T00:58:00.401Z,46.38
2023-01-12T00:59:00.379Z,46.29
2023-01-12T01:00:00.570Z,53.86
2023-01-12T01:01:00.383Z,54.44
2023-01-12T01:02:00.442Z,49.89
2023-01-12T01:03:00.427Z,49.08
2023-01-12T01:04:00.363Z,49.74
2023-01-12T01:05:00.351Z,57.29
2023-01-12T01:06:00.502Z,51.50
2023-01-12T01:07:00.303Z,48.26
2023-01-12T01:08:00.348Z,52.94
2023-01-12T01:09:00.274Z,47.80
2023-01-12T01:10:00.280Z,52.33
2023-01-12T01:11:00.294Z,49.19
2023-01-12T01:12:00.274Z,51.04
2023-01-12T01:13:00.291Z,59.98
2023-01-12T01:14:00.264Z,51.37
2023-01-12T01:15:00.239Z,51.93
2023-01-12T01:16:00.285Z,52.19
2023-01-12T01:17:00.219Z,52.18
2023-01-12T01:18:00.222Z,45.33
2023-01-12T01:19:00.219Z,45.61
2023-01-12T01:20:00.216Z,48.08
2023-01-12T01:21:00.195Z,50.43
2023-01-12T01:22:00.199Z,56.76
2023-01-12T01:23:00.217Z,54.06
2023-01-12T01:24:00.229Z,55.11
2023-01-12T01:25:00.446Z,56.09
2023-01-12T01:26:00.169Z,47.60
2023-01-12T01:27:00.158Z,53.71
2023-01-12T01:28:00.148Z,57.15
2023-01-12T01:29:00.987Z,59.10
2023-01-12T01:30:00.159Z,53.81
2023-01-12T01:31:00.197Z,57.80
2023-01-12T01:32:00.174Z,57.61
2023-01-12T01:33:00.149Z,60.47
2023-01-12T01:34:00.114Z,58.55
2023-01-12T01:35:00.108Z,50.66
2023-01-12T01:36:00.140Z,47.84
2023-01-12T01:37:00.189Z,56.06
2023-01-12T01:38:00.101Z,52.90
2023-01-12T01:39:00.070Z,54.99
2023-01-12T01:40:00.101Z,53.96
2023-01-12T01:41:00.036Z,54.22
2023-01-12T01:42:00.043Z,48.29
2023-01-12T01:43:00.129Z,49.20
2023-01-12T01:44:00.090Z,49.69
2023-01-12T01:45:00.061Z,55.50
2023-01-12T01:46:00.034Z,52.65
2023-01-12T01:47:00.033Z,52.70
2023-01-12T01:47:59.975Z,57.86
2023-01-12T01:49:00.099Z,52.51
2023-01-12T01:50:00.001Z,51.97
2023-01-12T01:50:59.971Z,55.49
2023-01-12T01:51:59.999Z,57.00
2023-01-12T01:52:59.957Z,56.24
2023-01-12T01:53:59.952Z,53.37
2023-01-12T01:54:59.943Z,59.30
2023-01-12T01:55:59.996Z,59.96
2023-01-12T01:56:59.918Z,58.29
2023-01-12T01:57:59.914Z,51.09
2023-01-12T01:59:00.904Z,53.38
2023-01-12T01:59:59.894Z,49.10
2023-01-12T02:00:59.926Z,46.41
2023-01-12T02:01:59.931Z,54.67
2023-01-12T02:02:59.958Z,53.05
2023-01-12T02:03:59.866Z,51.07
2023-01-12T02:04:59.875Z,49.06
2023-01-12T02:05:59.852Z,51.84
2023-01-12T02:06:59.996Z,50.93
2023-01-12T02:07:59.878Z,60.43
2023-01-12T02:08:59.853Z,63.23
2023-01-12T02:09:59.843Z,53.42
2023-01-12T02:10:59.812Z,54.52
2023-01-12T02:11:59.809Z,55.92
2023-01-12T02:12:59.832Z,53.99
2023-01-12T02:13:59.799Z,54.97
2023-01-12T02:14:59.789Z,52.24
2023-01-12T02:15:59.897Z,55.72
2023-01-12T02:16:59.753Z,58.18
2023-01-12T02:17:59.765Z,51.48
2023-01-12T02:18:59.759Z,54.44
2023-01-12T02:19:59.770Z,55.31
2023-01-12T02:20:59.737Z,56.72
2023-01-12T02:21:59.745Z,55.43
2023-01-12T02:22:59.713Z,50.76
2023-01-12T02:23:59.738Z,50.17
2023-01-12T02:24:59.697Z,55.78
2023-01-12T02:26:00.444Z,56.03
2023-01-12T02:27:25.588Z,54.47
2023-01-12T02:27:59.709Z,60.92
2023-01-12T02:28:59.657Z,53.67
2023-01-12T02:29:59.667Z,53.39
2023-01-12T02:30:59.658Z,52.39
2023-01-12T02:31:59.649Z,49.65
2023-01-12T02:32:59.645Z,51.65
2023-01-12T02:33:59.660Z,49.16
2023-01-12T02:35:31.576Z,53.97
2023-01-12T02:35:59.604Z,58.85
2023-01-12T02:36:59.611Z,52.88
2023-01-12T02:37:59.603Z,58.82
2023-01-12T02:38:59.651Z,55.51
2023-01-12T02:39:59.662Z,54.90
2023-01-12T02:40:59.626Z,52.52
2023-01-12T02:41:59.617Z,50.02
2023-01-12T02:42:59.556Z,47.86
2023-01-12T02:43:59.562Z,53.90
2023-01-12T02:44:59.542Z,55.49
2023-01-12T02:45:59.515Z,49.54
2023-01-12T02:46:59.536Z,56.47
2023-01-12T02:48:00.168Z,53.01
2023-01-12T02:48:59.506Z,53.28
2023-01-12T02:49:59.523Z,50.64
2023-01-12T02:50:59.484Z,51.20
2023-01-12T02:51:59.483Z,51.90
2023-01-12T02:52:59.483Z,51.63
2023-01-12T02:53:59.477Z,51.25
2023-01-12T02:54:59.468Z,48.25
2023-01-12T02:55:59.460Z,50.56
2023-01-12T02:56:59.454Z,48.39
2023-01-12T02:57:59.441Z,59.34
2023-01-12T02:58:59.430Z,54.44
2023-01-12T02:59:59.458Z,51.68
2023-01-12T03:00:59.606Z,53.79
2023-01-12T03:01:59.415Z,53.84
2023-01-12T03:02:59.497Z,52.26
2023-01-12T03:04:01.051Z,49.84
2023-01-12T03:05:00.401Z,49.87
2023-01-12T03:05:59.387Z,54.49
2023-01-12T03:06:59.373Z,55.09
2023-01-12T03:07:59.364Z,55.72
2023-01-12T03:08:59.415Z,54.99
2023-01-12T03:09:59.390Z,50.75
2023-01-12T03:10:59.368Z,56.92
2023-01-12T03:11:59.347Z,52.53
2023-01-12T03:12:59.351Z,52.51
2023-01-12T03:13:59.385Z,53.78
2023-01-12T03:15:31.259Z,51.60
2023-01-12T03:15:59.418Z,56.96
2023-01-12T03:16:59.331Z,55.70
2023-01-12T03:17:59.299Z,55.07
2023-01-12T03:18:59.309Z,55.49
2023-01-12T03:19:59.346Z,55.23
2023-01-12T03:20:59.275Z,54.01
2023-01-12T03:21:59.247Z,53.11
2023-01-12T03:23:00.234Z,55.46
2023-01-12T03:23:59.266Z,56.25
2023-01-12T03:24:59.265Z,57.43
2023-01-12T03:25:59.239Z,54.30
2023-01-12T03:26:59.224Z,57.21
2023-01-12T03:27:59.215Z,54.10
2023-01-12T03:28:59.233Z,57.37
2023-01-12T03:29:59.235Z,60.94
2023-01-12T03:30:59.209Z,56.35
2023-01-12T03:31:59.179Z,55.69
2023-01-12T03:32:59.188Z,51.27
2023-01-12T03:33:59.174Z,50.61
2023-01-12T03:34:59.282Z,54.06
2023-01-12T03:35:59.177Z,57.76
2023-01-12T03:36:59.139Z,57.30
2023-01-12T03:37:59.255Z,54.50
2023-01-12T03:38:59.129Z,53.18
2023-01-12T03:39:59.122Z,55.54
2023-01-12T03:40:59.103Z,56.84
2023-01-12T03:41:59.103Z,59.79
2023-01-12T03:42:59.295Z,60.44
2023-01-12T03:43:59.084Z,54.53
2023-01-12T03:44:59.081Z,65.40
2023-01-12T03:45:59.091Z,58.72
2023-01-12T03:46:59.223Z,54.56
2023-01-12T04:04:05.687Z,62.35
2023-01-12T04:05:05.656Z,59.62
2023-01-12T04:06:05.622Z,59.73
2023-01-12T04:07:05.629Z,62.14
2023-01-12T04:08:06.824Z,55.48
2023-01-12T04:09:06.755Z,59.32
2023-01-12T04:10:06.784Z,63.20
2023-01-12T04:11:06.772Z,58.75
2023-01-12T04:12:06.733Z,66.51
2023-01-12T04:13:06.732Z,58.00
2023-01-12T04:14:06.721Z,58.83
2023-01-12T04:15:06.703Z,61.27
2023-01-12T04:16:06.816Z,66.05
2023-01-12T04:17:06.679Z,62.32
2023-01-12T04:18:06.707Z,55.52
2023-01-12T04:19:06.710Z,62.57
2023-01-12T04:20:06.703Z,60.50
2023-01-12T04:21:06.688Z,61.89
2023-01-12T04:22:06.662Z,65.36
2023-01-12T04:23:06.666Z,66.84
2023-01-12T04:24:06.639Z,62.96
2023-01-12T04:25:08.679Z,63.99
2023-01-12T04:26:06.628Z,64.04
2023-01-12T04:27:06.637Z,59.40
2023-01-12T04:28:06.596Z,66.67
2023-01-12T04:29:06.601Z,56.99
2023-01-12T04:30:06.625Z,64.53
2023-01-12T04:31:06.582Z,60.76
2023-01-12T04:32:06.572Z,62.42
2023-01-12T04:33:06.608Z,65.39
2023-01-12T04:34:06.561Z,64.35
2023-01-12T04:35:06.571Z,63.37
2023-01-12T04:36:39.678Z,66.12
2023-01-12T04:37:06.538Z,63.61
2023-01-12T04:38:06.538Z,64.60
2023-01-12T04:39:06.537Z,64.10
2023-01-12T04:40:06.525Z,63.39
2023-01-12T04:41:06.505Z,66.72
2023-01-12T04:42:06.542Z,64.49
2023-01-12T04:43:08.010Z,61.27
2023-01-12T04:44:07.482Z,64.44
2023-01-12T04:45:06.517Z,64.67
2023-01-12T04:46:06.528Z,69.52
2023-01-12T04:47:06.511Z,67.05
2023-01-12T04:48:06.531Z,63.15
2023-01-12T04:49:06.449Z,64.71
2023-01-12T04:50:06.541Z,65.66
2023-01-12T04:51:06.446Z,60.87
2023-01-12T04:52:06.497Z,59.72
2023-01-12T04:53:07.477Z,67.16
2023-01-12T04:54:06.432Z,65.32
2023-01-12T04:55:06.535Z,56.06
2023-01-12T04:56:07.036Z,58.91
2023-01-12T04:57:07.012Z,63.75
2023-01-12T04:58:06.411Z,68.31
2023-01-12T04:59:06.376Z,66.02
2023-01-12T05:00:06.381Z,63.45
2023-01-12T05:01:06.400Z,68.03
2023-01-12T05:02:06.456Z,58.78
2023-01-12T05:03:06.343Z,66.94
2023-01-12T05:04:07.911Z,63.89
2023-01-12T05:05:07.366Z,60.01
2023-01-12T05:06:06.308Z,64.59
2023-01-12T05:07:06.333Z,61.47
2023-01-12T05:08:06.306Z,61.25
2023-01-12T05:09:06.318Z,60.72
2023-01-12T05:10:06.307Z,69.34
2023-01-12T05:11:06.283Z,66.08
2023-01-12T05:12:06.278Z,66.87
2023-01-12T05:13:06.288Z,65.87
2023-01-12T05:14:06.254Z,63.32
2023-01-12T05:15:06.926Z,66.51
2023-01-12T05:16:38.206Z,63.81
2023-01-12T05:17:06.227Z,53.98
2023-01-12T05:18:06.283Z,66.84
2023-01-12T05:19:06.255Z,65.65
2023-01-12T05:20:06.247Z,63.38
2023-01-12T05:21:06.248Z,62.64
2023-01-12T05:22:06.179Z,57.64
2023-01-12T05:23:06.238Z,69.49
2023-01-12T05:24:06.189Z,63.36
2023-01-12T05:25:06.221Z,68.94
2023-01-12T05:26:06.210Z,66.29
2023-01-12T05:27:06.178Z,65.35
2023-01-12T05:28:06.131Z,68.98
2023-01-12T05:29:06.151Z,69.67
2023-01-12T05:30:06.146Z,67.68
2023-01-12T05:31:06.214Z,67.28
2023-01-12T05:32:06.127Z,67.27
2023-01-12T05:33:06.121Z,68.32
2023-01-12T05:34:06.115Z,67.70
2023-01-12T05:35:06.942Z,66.38
2023-01-12T05:36:06.088Z,65.67
2023-01-12T05:37:06.110Z,64.37
2023-01-12T05:38:06.099Z,64.75
2023-01-12T05:39:06.068Z,63.30
2023-01-12T05:40:06.064Z,68.26
2023-01-12T05:41:06.053Z,68.95
2023-01-12T05:42:06.115Z,65.96
2023-01-12T05:43:06.054Z,69.35
2023-01-12T05:44:06.037Z,69.09
2023-01-12T05:45:06.014Z,66.66
2023-01-12T05:46:06.080Z,69.37
2023-01-12T05:47:06.035Z,70.35
2023-01-12T05:48:06.914Z,66.37
2023-01-12T05:49:06.017Z,70.93
2023-01-12T05:50:05.997Z,69.22
2023-01-12T05:51:05.988Z,63.84
2023-01-12T05:52:05.982Z,67.12
2023-01-12T05:53:06.110Z,68.28
2023-01-12T05:54:05.972Z,69.92
2023-01-12T05:55:05.957Z,65.91
2023-01-12T05:56:05.946Z,67.84
2023-01-12T05:57:06.451Z,65.91
2023-01-12T05:58:05.931Z,64.70
2023-01-12T05:59:05.954Z,64.18
2023-01-12T06:00:05.892Z,67.59
2023-01-12T06:01:06.935Z,68.64
2023-01-12T06:02:05.940Z,69.61
2023-01-12T06:03:05.877Z,66.26
2023-01-12T06:04:05.903Z,71.53
2023-01-12T06:05:05.886Z,68.69
2023-01-12T06:06:05.856Z,68.88
2023-01-12T06:07:05.876Z,66.74
2023-01-12T06:08:05.845Z,70.22
2023-01-12T06:09:05.876Z,67.13
2023-01-12T06:10:05.835Z,71.12
2023-01-12T06:11:05.837Z,67.63
2023-01-12T06:12:05.829Z,70.62
2023-01-12T06:13:05.803Z,70.17
2023-01-12T06:14:05.855Z,69.89
2023-01-12T06:15:05.834Z,72.09
2023-01-12T06:16:05.946Z,68.59
2023-01-12T06:17:05.795Z,71.48
2023-01-12T06:18:05.768Z,70.91
2023-01-12T06:19:05.767Z,68.79
2023-01-12T06:20:05.800Z,71.01
2023-01-12T06:21:05.749Z,72.17
2023-01-12T06:22:05.727Z,72.27
2023-01-12T06:23:05.728Z,68.15
2023-01-12T06:24:05.721Z,71.84
2023-01-12T06:25:05.730Z,71.16
2023-01-12T06:26:05.730Z,72.79
2023-01-12T06:27:05.727Z,69.83
2023-01-12T06:28:05.843Z,74.37
2023-01-12T06:30:52.357Z,71.17
2023-01-12T06:31:52.249Z,73.56
2023-01-12T06:32:52.237Z,70.68
2023-01-12T06:33:52.234Z,70.92
2023-01-12T06:34:53.358Z,71.37
2023-01-12T06:35:53.497Z,72.25
2023-01-12T06:36:53.386Z,71.14
2023-01-12T06:37:53.491Z,73.44
2023-01-12T06:38:53.328Z,67.15
2023-01-12T06:39:53.310Z,70.25
2023-01-12T06:40:53.329Z,72.13
2023-01-12T06:41:53.292Z,72.97
2023-01-12T06:42:53.348Z,70.34
2023-01-12T06:43:53.803Z,70.51
2023-01-12T06:44:53.302Z,72.70
2023-01-12T06:45:53.262Z,72.72
2023-01-12T06:46:53.306Z,70.68
2023-01-12T06:47:53.301Z,73.11
2023-01-12T06:52:02.213Z,68.13
2023-01-12T06:53:03.315Z,73.14
2023-01-12T06:54:03.383Z,64.61
2023-01-12T06:55:03.308Z,71.27
2023-01-12T06:56:04.167Z,68.36
2023-01-12T06:57:03.309Z,65.89
2023-01-12T06:58:35.179Z,70.31
2023-01-12T06:59:03.318Z,73.38
2023-01-12T07:00:03.357Z,70.35
2023-01-12T07:01:04.257Z,71.54
2023-01-12T07:02:03.398Z,67.23
2023-01-12T07:03:03.317Z,69.40
2023-01-12T07:04:03.270Z,69.54
2023-01-12T07:05:03.342Z,71.00
2023-01-12T07:06:03.219Z,67.06
2023-01-12T07:07:04.205Z,69.51
2023-01-12T07:08:03.241Z,66.20
2023-01-12T07:09:03.192Z,70.06
2023-01-12T07:10:04.055Z,68.00
2023-01-12T07:11:03.172Z,69.72
2023-01-12T07:12:03.168Z,68.63
2023-01-12T07:13:03.217Z,66.49
2023-01-12T07:14:03.227Z,71.59
2023-01-12T07:15:03.144Z,70.95
2023-01-12T07:16:03.204Z,68.90
2023-01-12T07:17:03.208Z,67.77
2023-01-12T07:18:03.148Z,68.26
2023-01-12T07:19:03.130Z,68.72
2023-01-12T07:20:03.115Z,68.30
2023-01-12T07:21:03.131Z,66.06
2023-01-12T07:22:03.123Z,71.19
2023-01-12T07:23:03.093Z,70.36
2023-01-12T07:24:03.634Z,65.68
2023-01-12T07:25:03.082Z,64.76
2023-01-12T07:26:03.110Z,68.01
2023-01-12T07:27:03.108Z,70.59
2023-01-12T07:28:34.981Z,63.20
2023-01-12T07:29:03.110Z,69.51
2023-01-12T07:30:04.292Z,66.20
2023-01-12T07:31:03.064Z,69.11
2023-01-12T07:32:03.004Z,68.83
2023-01-12T07:33:03.006Z,68.69
2023-01-12T07:34:03.813Z,67.67
2023-01-12T07:35:02.989Z,64.66
2023-01-12T07:36:03.009Z,69.92
2023-01-12T07:37:02.971Z,65.31
2023-01-12T07:38:02.966Z,69.02
2023-01-12T07:39:02.969Z,68.01
2023-01-12T07:40:02.999Z,62.06
2023-01-12T07:41:03.740Z,71.44
2023-01-12T07:42:02.953Z,67.79
2023-01-12T07:43:02.945Z,66.76
2023-01-12T07:44:02.954Z,73.76
2023-01-12T07:45:02.906Z,67.35
2023-01-12T07:46:03.020Z,62.63
2023-01-12T07:47:02.881Z,69.31
2023-01-12T07:48:02.898Z,70.83
2023-01-12T07:49:02.872Z,68.12
2023-01-12T07:50:02.947Z,68.95
2023-01-12T07:51:02.946Z,68.76
2023-01-12T07:52:02.895Z,69.85
2023-01-12T07:53:02.925Z,65.80
2023-01-12T07:54:02.866Z,66.63
2023-01-12T07:55:02.855Z,67.36
2023-01-12T07:56:02.839Z,66.10
2023-01-12T07:57:02.820Z,69.16
2023-01-12T07:58:02.841Z,67.63
2023-01-12T07:59:02.805Z,69.30
2023-01-12T08:00:02.826Z,66.48
2023-01-12T08:01:02.832Z,67.08
2023-01-12T08:02:02.938Z,68.43
2023-01-12T08:03:02.793Z,69.48
2023-01-12T08:04:02.783Z,70.18
2023-01-12T08:05:02.780Z,67.19
2023-01-12T08:06:02.774Z,68.87
2023-01-12T08:07:02.823Z,67.65
2023-01-12T08:08:03.749Z,69.77
2023-01-12T08:09:03.743Z,67.79
2023-01-12T08:10:34.661Z,63.96
2023-01-12T08:11:02.732Z,67.36
2023-01-12T08:12:02.786Z,69.39
2023-01-12T08:13:02.732Z,69.36
2023-01-12T08:14:02.692Z,71.97
2023-01-12T08:15:02.674Z,65.63
2023-01-12T08:16:02.772Z,71.62
2023-01-12T08:17:02.671Z,68.76
2023-01-12T08:18:05.080Z,67.25
2023-01-12T08:19:02.681Z,69.61
2023-01-12T08:20:02.655Z,70.97
2023-01-12T08:21:02.647Z,65.87
2023-01-12T08:22:02.651Z,67.74
2023-01-12T08:23:02.689Z,73.13
2023-01-12T08:24:03.331Z,74.06
2023-01-12T08:25:02.626Z,66.76
2023-01-12T08:26:02.616Z,71.67
2023-01-12T08:30:00.851Z,67.20
2023-01-12T08:31:02.044Z,67.59
2023-01-12T08:32:02.641Z,70.59
2023-01-12T08:33:02.798Z,71.69
2023-01-12T08:34:02.806Z,66.86
2023-01-12T08:35:04.046Z,71.76
2023-01-12T08:36:03.079Z,65.89
2023-01-12T08:37:01.975Z,71.15
2023-01-12T08:38:01.881Z,66.90
2023-01-12T08:39:02.887Z,73.30
2023-01-12T08:40:01.994Z,63.99
2023-01-12T08:41:01.854Z,71.51
2023-01-12T08:42:01.883Z,69.36
2023-01-12T08:43:01.836Z,70.84
2023-01-12T08:44:01.864Z,74.47
2023-01-12T08:45:01.985Z,68.00
2023-01-12T08:46:02.517Z,68.31
2023-01-12T08:47:03.174Z,70.87
2023-01-12T08:48:02.723Z,72.33
2023-01-12T08:49:02.687Z,69.21
2023-01-12T08:50:03.174Z,67.91
2023-01-12T08:51:02.561Z,72.88
2023-01-12T08:52:02.104Z,67.44
2023-01-12T08:53:03.303Z,71.84
2023-01-12T08:54:01.968Z,67.28
2023-01-12T08:55:03.073Z,71.49
2023-01-12T08:56:02.275Z,71.87
2023-01-12T08:57:03.153Z,74.21
2023-01-12T08:58:01.940Z,72.55
2023-01-12T08:59:04.309Z,74.49
2023-01-12T09:00:02.434Z,71.45
2023-01-12T09:01:03.416Z,67.26
2023-01-12T09:02:05.924Z,70.48
2023-01-12T09:03:02.890Z,72.55
2023-01-12T09:04:02.837Z,74.13
2023-01-12T09:05:02.048Z,68.86
2023-01-12T09:06:02.321Z,64.81
2023-01-12T09:07:01.692Z,74.35
2023-01-12T09:08:01.677Z,70.00
2023-01-12T09:09:01.640Z,70.83
2023-01-12T09:10:01.652Z,69.76
2023-01-12T09:11:01.625Z,67.69
2023-01-12T09:12:01.605Z,68.15
2023-01-12T09:13:01.682Z,74.70
2023-01-12T09:14:01.597Z,71.23
2023-01-12T09:15:01.615Z,75.00
2023-01-12T09:16:12.423Z,73.72
2023-01-12T09:17:06.112Z,69.94
2023-01-12T09:18:04.736Z,63.19
2023-01-12T09:19:03.487Z,72.24
2023-01-12T09:20:01.691Z,67.39
2023-01-12T09:21:02.884Z,64.08
2023-01-12T09:22:03.489Z,70.39
2023-01-12T09:23:02.498Z,66.99
2023-01-12T09:24:01.663Z,70.80
2023-01-12T09:25:03.811Z,71.98
2023-01-12T09:26:03.317Z,69.17
2023-01-12T09:27:09.866Z,71.51
2023-01-12T09:28:07.916Z,65.90
2023-01-12T09:29:15.472Z,68.68
2023-01-12T09:30:04.119Z,70.93
2023-01-12T09:31:36.816Z,71.66
2023-01-12T09:33:08.376Z,72.64
2023-01-12T09:36:08.894Z,72.46
2023-01-12T09:37:11.470Z,72.54
2023-01-12T09:45:35.953Z,67.11
2023-01-12T09:46:40.453Z,71.36
2023-01-12T09:47:37.380Z,72.47
2023-01-12T09:48:41.446Z,69.50
2023-01-12T09:50:04.550Z,74.54
2023-01-12T09:50:51.760Z,71.30
2023-01-12T09:51:32.937Z,68.36
2023-01-12T09:52:39.458Z,71.68
2023-01-12T09:53:36.365Z,65.04
2023-01-12T09:54:33.476Z,64.22
2023-01-12T09:55:31.352Z,68.67
2023-01-12T09:56:30.321Z,72.53
2023-01-12T09:57:30.320Z,70.54
2023-01-12T09:58:30.322Z,69.76
2023-01-12T09:59:30.275Z,73.59
2023-01-12T10:00:30.310Z,68.69
2023-01-12T10:01:30.476Z,69.91
2023-01-12T10:02:33.112Z,73.31
2023-01-12T10:03:31.452Z,64.88
2023-01-12T10:04:30.827Z,65.95
2023-01-12T10:05:38.949Z,70.22
2023-01-12T10:06:32.260Z,67.82
2023-01-12T10:07:30.533Z,72.04
2023-01-12T10:08:30.257Z,70.75
2023-01-12T10:09:30.343Z,71.66
2023-01-12T10:10:33.885Z,69.16
2023-01-12T10:11:38.610Z,71.80
2023-01-12T10:12:35.830Z,70.02
2023-01-12T10:13:32.692Z,69.06
2023-01-12T10:14:37.861Z,67.77
2023-01-12T10:15:50.987Z,70.96
2023-01-12T10:16:39.449Z,74.24
2023-01-12T10:17:46.041Z,65.46
2023-01-12T10:18:33.595Z,72.60
2023-01-12T10:19:31.209Z,67.55
2023-01-12T10:20:36.324Z,69.75
2023-01-12T10:21:51.339Z,67.46
2023-01-12T10:22:31.901Z,65.36
2023-01-12T10:23:30.729Z,67.98
2023-01-12T10:24:33.340Z,70.82
2023-01-12T10:25:33.630Z,71.44
2023-01-12T10:26:34.976Z,67.77
2023-01-12T10:27:30.659Z,69.86
2023-01-12T10:28:34.357Z,66.19
2023-01-12T10:29:30.830Z,71.22
2023-01-12T10:30:34.530Z,72.87
2023-01-12T10:31:35.365Z,71.28
2023-01-12T10:32:34.485Z,65.69
2023-01-12T10:33:32.318Z,70.22
2023-01-12T10:34:31.330Z,64.88
2023-01-12T10:35:31.879Z,70.48
2023-01-12T10:36:30.832Z,69.61
2023-01-12T10:37:31.658Z,73.12
2023-01-12T10:38:30.997Z,69.04
2023-01-12T10:39:40.523Z,67.95
2023-01-12T10:40:30.227Z,74.12
2023-01-12T10:41:30.788Z,68.48
2023-01-12T10:42:33.065Z,70.75
2023-01-12T10:43:32.023Z,73.66
2023-01-12T10:44:31.829Z,70.50
2023-01-12T10:45:31.497Z,72.41
2023-01-12T10:46:33.986Z,63.50
2023-01-12T10:47:31.894Z,71.63
2023-01-12T10:48:33.551Z,68.46
2023-01-12T10:49:32.453Z,67.60
2023-01-12T10:50:33.338Z,72.44
2023-01-12T10:51:30.799Z,68.13
2023-01-12T10:52:31.865Z,64.09
2023-01-12T10:53:31.048Z,73.77
2023-01-12T10:54:34.556Z,69.21
2023-01-12T10:55:34.033Z,70.07
2023-01-12T10:56:30.016Z,70.12
2023-01-12T10:57:30.005Z,69.65
2023-01-12T10:58:29.895Z,68.93
2023-01-12T10:59:29.859Z,71.07
2023-01-12T11:00:29.881Z,68.88
2023-01-12T11:01:29.953Z,65.92
2023-01-12T11:02:29.952Z,69.45
2023-01-12T11:03:29.829Z,73.07
2023-01-12T11:04:29.982Z,70.95
2023-01-12T11:05:29.826Z,65.91
2023-01-12T11:06:29.814Z,66.91
2023-01-12T11:07:29.804Z,68.55
2023-01-12T11:08:29.761Z,68.37
2023-01-12T11:09:29.771Z,74.23
2023-01-12T11:10:29.750Z,72.47
2023-01-12T11:11:29.734Z,70.44
2023-01-12T11:12:30.103Z,66.01
2023-01-12T11:13:31.367Z,71.10
2023-01-12T11:14:29.732Z,73.43
2023-01-12T11:15:29.694Z,75.25
2023-01-12T11:16:29.772Z,73.83
2023-01-12T11:17:29.767Z,71.24
2023-01-12T11:18:29.688Z,66.80
2023-01-12T11:19:29.682Z,69.14
2023-01-12T11:20:29.699Z,70.86
2023-01-12T11:21:29.690Z,67.75
2023-01-12T11:22:29.664Z,71.05
2023-01-12T11:23:29.620Z,67.95
2023-01-12T11:24:29.636Z,72.22
2023-01-12T11:25:29.675Z,63.12
2023-01-12T11:26:29.629Z,68.13
2023-01-12T11:27:29.668Z,71.86
2023-01-12T11:28:29.632Z,68.63
2023-01-12T11:29:29.635Z,69.65
2023-01-12T11:30:29.712Z,67.94
2023-01-12T11:31:29.630Z,69.63
2023-01-12T11:32:29.603Z,71.80
2023-01-12T11:33:29.613Z,67.09
2023-01-12T11:34:29.569Z,74.17
2023-01-12T11:35:29.594Z,71.14
2023-01-12T11:36:29.571Z,71.48
2023-01-12T11:37:30.548Z,71.14
2023-01-12T11:38:29.552Z,67.46
2023-01-12T11:39:30.333Z,71.37
2023-01-12T11:40:29.562Z,67.68
2023-01-12T11:41:29.568Z,67.86
2023-01-12T11:42:29.595Z,70.81
2023-01-12T11:43:29.522Z,74.64
2023-01-12T11:44:29.539Z,67.38
2023-01-12T11:45:29.522Z,67.57
2023-01-12T11:46:29.527Z,73.68
2023-01-12T11:47:29.462Z,72.43
2023-01-12T11:48:29.491Z,69.70
2023-01-12T11:49:29.464Z,70.69
2023-01-12T11:50:29.474Z,70.05
2023-01-12T11:51:29.451Z,69.05
2023-01-12T11:52:29.578Z,71.11
2023-01-12T11:53:29.455Z,68.71
2023-01-12T11:54:29.481Z,73.28
2023-01-12T11:55:29.439Z,68.08
2023-01-12T11:56:29.421Z,73.15
2023-01-12T11:57:29.431Z,71.86
2023-01-12T11:58:29.419Z,63.80
2023-01-12T11:59:29.411Z,72.44
2023-01-12T12:00:29.368Z,66.99
2023-01-12T12:01:29.390Z,69.17
2023-01-12T12:02:29.381Z,70.67
2023-01-12T12:03:29.387Z,69.35
2023-01-12T12:04:29.395Z,69.63
2023-01-12T12:05:29.368Z,73.81
2023-01-12T12:06:29.943Z,72.25
2023-01-12T12:07:29.332Z,65.35
2023-01-12T12:08:29.356Z,62.02
2023-01-12T12:09:29.297Z,69.64
2023-01-12T12:10:29.323Z,68.44
2023-01-12T12:11:29.277Z,70.35
2023-01-12T12:12:29.279Z,71.66
2023-01-12T12:13:29.260Z,72.17
2023-01-12T12:14:29.282Z,68.25
2023-01-12T12:15:29.305Z,68.66
2023-01-12T12:16:29.274Z,71.83
2023-01-12T12:17:29.338Z,69.52
2023-01-12T12:18:29.250Z,68.13
2023-01-12T12:19:29.215Z,68.83
2023-01-12T12:20:29.300Z,70.79
2023-01-12T12:21:29.216Z,69.97
2023-01-12T12:22:29.191Z,71.04
2023-01-12T12:23:29.209Z,64.28
2023-01-12T12:24:29.194Z,67.75
2023-01-12T12:25:29.233Z,68.00
2023-01-12T12:26:29.194Z,67.83
2023-01-12T12:27:29.206Z,71.80
2023-01-12T12:28:29.190Z,67.50
2023-01-12T12:29:29.122Z,64.38
2023-01-12T12:30:29.146Z,72.43
2023-01-12T12:31:29.141Z,64.45
2023-01-12T12:32:29.180Z,68.69
2023-01-12T12:33:29.110Z,66.90
2023-01-12T12:34:29.128Z,69.64
2023-01-12T12:35:29.105Z,71.47
2023-01-12T12:37:01.079Z,66.54
2023-01-12T12:37:29.063Z,71.31
2023-01-12T12:38:29.132Z,69.59
2023-01-12T12:40:01.007Z,65.19
2023-01-12T12:40:29.060Z,75.53
2023-01-12T12:42:00.989Z,69.97
2023-01-12T12:42:29.041Z,71.66
2023-01-12T12:43:29.604Z,68.39
2023-01-12T12:44:29.046Z,67.14
2023-01-12T12:45:29.103Z,68.77
2023-01-12T12:46:29.155Z,72.31
2023-01-12T12:47:29.005Z,67.77
2023-01-12T12:48:28.993Z,73.62
2023-01-12T12:49:28.958Z,66.42
2023-01-12T12:50:28.968Z,72.43
2023-01-12T12:51:28.964Z,74.79
2023-01-12T12:52:29.013Z,67.60
2023-01-12T12:53:28.961Z,66.38
2023-01-12T12:54:28.959Z,71.37
2023-01-12T12:55:29.963Z,67.16
2023-01-12T12:56:29.027Z,73.57
2023-01-12T12:57:28.923Z,64.58
2023-01-12T12:58:28.938Z,67.90
2023-01-12T12:59:28.921Z,70.01
2023-01-12T13:00:28.949Z,73.47
2023-01-12T13:01:29.048Z,71.82
2023-01-12T13:02:29.751Z,68.47
2023-01-12T13:03:28.931Z,69.50
2023-01-12T13:04:28.879Z,71.56
2023-01-12T13:05:28.849Z,70.60
2023-01-12T13:06:28.859Z,70.93
2023-01-12T13:07:28.861Z,67.35
2023-01-12T13:08:28.834Z,71.90
2023-01-12T13:09:28.877Z,68.48
2023-01-12T13:10:28.835Z,70.56
2023-01-12T13:11:28.837Z,68.98
2023-01-12T13:12:28.831Z,68.04
2023-01-12T13:13:28.805Z,66.02
2023-01-12T13:14:28.820Z,70.01
2023-01-12T13:15:28.799Z,67.33
2023-01-12T13:16:28.806Z,71.86
2023-01-12T13:17:28.825Z,71.00
2023-01-12T13:18:28.816Z,69.76
2023-01-12T13:19:28.823Z,65.36
2023-01-12T13:20:28.749Z,72.28
2023-01-12T13:21:28.751Z,70.43
2023-01-12T13:22:28.722Z,64.37
2023-01-12T13:23:28.737Z,68.25
2023-01-12T13:24:28.743Z,69.31
2023-01-12T13:25:28.712Z,72.34
2023-01-12T13:26:28.736Z,70.38